Latest Coastal Weather Observations for Coffs Harbour Airport

IDN60701

Issued at 1:21 pm EST Thursday 18 July 2019 (issued every 10 minutes, with the page automatically refreshed every 10 minutes)

About coastal observations | Map of coastal stations | Coastal observations for NSW | Marine services | Other Formats
Station Details ID: 059151 Name: COFFS HARBOUR AIRPORT Lat: -30.32 Lon: 153.12 Height: 3.5 m
Data from the previous 72 hours. | See also: Recent months at Coffs Harbour Airport
Date/Time
EST
Wind Sea
Height
m
Swell Vis
km
Cloud Weather Temp
°C
Press
hPa
Rain since
9am
mm
Dir  Spd
kts
Gust
kts
Height
m
Period
s
Dir
18/01:00pm SW 8 12 - - - - 10 - - 19.3 1014.6 0.0
18/12:30pm SW 11 15 - - - - 10 - - 19.2 1014.9 0.0
18/12:00pm SW 11 16 - - - - 10 - - 18.8 1015.4 0.0
18/11:30am WSW 10 15 - - - - 10 - - 18.6 1015.8 0.0
18/11:00am WSW 13 20 - - - - 10 - - 18.6 1016.1 0.0
18/10:30am WSW 10 16 - - - - 10 - - 17.6 1016.2 0.0
18/10:00am WSW 10 16 - - - - 10 - - 16.7 1016.5 0.0
18/09:50am WSW 11 17 - - - - 10 - - 16.6 1016.4 0.0
18/09:30am W 3 6 - - - - 10 - - 16.2 1016.5 0.0
18/09:00am NW 3 5 - - - - 10 - - 14.1 1016.4 0.0
18/08:30am NNW 6 7 - - - - 10 - - 11.2 1016.1 0.0
18/08:00am N 1 6 - - - - 10 - - 8.1 1016.3 0.0
18/07:30am NW 4 6 - - - - 10 - - 5.8 1016.0 0.0
18/07:00am NW 7 8 - - - - 10 - - 3.9 1016.0 0.0
18/06:30am NW 6 7 - - - - 10 - - 3.1 1015.9 0.0
18/06:00am WNW 2 6 - - - - 10 - - 2.4 1015.4 0.0
18/05:30am NW 6 6 - - - - 10 - - 3.6 1014.7 0.0
18/05:00am SSW 4 7 - - - - 10 - - 2.7 1014.6 0.0
18/04:30am NNW 1 4 - - - - 10 - - 3.4 1013.8 0.0
18/04:00am NNW 3 5 - - - - 10 - - 4.6 1013.9 0.0
18/03:30am NNW 5 6 - - - - 10 - - 5.3 1014.2 0.0
18/03:00am NW 5 7 - - - - 10 - - 5.5 1014.2 0.0
18/02:49am NW 5 7 - - - - 6 - - 4.4 1014.3 0.0
18/02:30am W 5 6 - - - - 10 - - 5.6 1014.5 0.0
18/02:22am W 5 6 - - - - 10 - - 5.4 1014.4 0.0
18/02:00am WSW 5 6 - - - - 6 - - 4.4 1014.5 0.0
18/01:30am SW 6 7 - - - - 10 - - 5.5 1014.3 0.0
18/01:08am NNW 2 4 - - - - 8 - - 5.7 1014.0 0.0
18/01:00am NNW 3 6 - - - - 8 - - 5.8 1014.1 0.0
18/12:54am WNW 3 6 - - - - 1 - - 6.9 1014.0 0.0
18/12:30am CALM 0 4 - - - - 0.6 - - 6.0 1014.4 0.0
18/12:29am CALM 0 0 - - - - 0.7 - - 5.9 1014.4 0.0
18/12:20am CALM 0 0 - - - - 6 - - 6.1 1014.5 0.0
18/12:00am WSW 4 6 - - - - 10 - - 6.2 1014.6 0.0
 
Date/Time
EST
Wind Sea
Height
m
Swell Vis
km
Cloud Weather Temp
°C
Press
hPa
Rain since
9am
mm
Dir  Spd
kts
Gust
kts
Height
m
Period
s
Dir
17/11:30pm NW 3 5 - - - - 10 - - 8.8 1014.9 0.0
17/11:24pm WNW 1 5 - - - - 10 - - 5.6 1015.0 0.0
17/11:00pm WNW 3 5 - - - - 5 - - 8.2 1015.3 0.0
17/10:55pm WNW 4 4 - - - - 6 - - 8.2 1015.4 0.0
17/10:30pm WSW 4 6 - - - - 10 - - 9.2 1015.5 0.0
17/10:00pm N 3 4 - - - - 10 - - 10.0 1015.7 0.0
17/09:30pm NNW 6 7 - - - - 10 - - 12.4 1015.8 0.0
17/09:00pm NW 8 11 - - - - 10 - - 13.5 1015.8 0.0
17/08:30pm NW 6 7 - - - - 10 - - 12.5 1015.9 0.0
17/08:00pm NW 6 7 - - - - 10 - - 11.6 1016.1 0.0
17/07:30pm NW 8 9 - - - - 10 - - 13.5 1016.1 0.0
17/07:00pm NNW 7 9 - - - - 10 - - 13.1 1015.8 0.0
17/06:30pm NW 4 6 - - - - 10 - - 11.9 1015.7 0.0
17/06:00pm NW 5 6 - - - - 10 - - 12.3 1015.5 0.0
17/05:30pm NW 5 5 - - - - 10 - - 13.2 1015.4 0.0
17/05:00pm N 5 7 - - - - 10 - - 15.8 1015.2 0.0
17/04:30pm NNE 7 9 - - - - 10 - - 17.5 1015.3 0.0
17/04:00pm NE 6 9 - - - - 10 - - 18.2 1015.3 0.0
17/03:30pm NE 6 9 - - - - 10 - - 18.4 1015.4 0.0
17/03:00pm NE 6 8 - - - - 10 - - 18.7 1015.5 0.0
17/02:30pm ENE 7 9 - - - - 10 - - 18.5 1015.6 0.0
17/02:00pm E 7 9 - - - - 10 - - 18.4 1015.8 0.0
17/01:30pm E 7 10 - - - - 10 - - 18.4 1016.0 0.0
17/01:00pm ESE 6 9 - - - - 10 - - 17.9 1016.3 0.0
17/12:30pm SE 7 9 - - - - 10 - - 18.0 1017.0 0.0
17/12:00pm SE 7 9 - - - - 10 - - 17.5 1017.6 0.0
17/11:30am SE 7 12 - - - - 10 - - 17.4 1018.2 0.0
17/11:00am SE 7 9 - - - - 10 - - 17.6 1018.9 0.0
17/10:30am SE 5 6 - - - - 10 - - 17.4 1019.4 0.0
17/10:00am S 3 6 - - - - 10 - - 16.9 1019.6 0.0
17/09:30am SSW 1 4 - - - - 10 - - 15.4 1019.8 0.0
17/09:00am W 4 5 - - - - 10 - - 13.2 1019.8 0.0
17/08:30am NW 3 3 - - - - 10 - - 11.1 1019.7 0.0
17/08:00am WNW 1 4 - - - - 10 - - 8.3 1019.5 0.0
17/07:30am WNW 4 4 - - - - 10 - - 6.3 1019.4 0.0
17/07:00am WNW 4 5 - - - - 10 - - 4.7 1019.3 0.0
17/06:30am WNW 4 5 - - - - 10 - - 5.0 1019.0 0.0
17/06:00am WSW 1 4 - - - - 10 - - 4.9 1018.8 0.0
17/05:30am WSW 5 6 - - - - 10 - - 4.8 1018.6 0.0
17/05:00am W 3 4 - - - - 10 - - 5.4 1018.3 0.0
17/04:30am W 1 3 - - - - 10 - - 4.7 1018.4 0.0
17/04:00am W 4 4 - - - - 10 - - 4.9 1018.4 0.0
17/03:30am WNW 5 5 - - - - 10 - - 5.0 1018.5 0.0
17/03:00am NW 4 5 - - - - 10 - - 5.4 1018.4 0.0
17/02:30am WNW 3 4 - - - - 10 - - 5.6 1018.5 0.0
17/02:00am WNW 3 4 - - - - 10 - - 5.4 1018.6 0.0
17/01:30am NW 5 5 - - - - 10 - - 5.7 1018.6 0.0
17/01:00am NW 4 5 - - - - 10 - - 5.7 1018.9 0.0
17/12:30am WNW 5 5 - - - - 10 - - 6.1 1019.0 0.0
17/12:00am WNW 4 5 - - - - 10 - - 6.3 1019.1 0.0
 
Date/Time
EST
Wind Sea
Height
m
Swell Vis
km
Cloud Weather Temp
°C
Press
hPa
Rain since
9am
mm
Dir  Spd
kts
Gust
kts
Height
m
Period
s
Dir
16/11:30pm WNW 4 5 - - - - 10 - - 6.5 1019.4 0.0
16/11:00pm WNW 4 4 - - - - 10 - - 6.8 1019.3 0.0
16/10:30pm WNW 5 6 - - - - 10 - - 6.4 1019.2 0.0
16/10:00pm WNW 4 5 - - - - 10 - - 7.0 1019.2 0.0
16/09:30pm WNW 4 5 - - - - 10 - - 7.3 1018.9 0.0
16/09:00pm W 3 4 - - - - 10 - - 7.0 1019.0 0.0
16/08:30pm CALM 0 0 - - - - 10 - - 7.7 1018.7 0.0
16/08:00pm WNW 4 4 - - - - 10 - - 7.6 1018.4 0.0
16/07:30pm NW 4 5 - - - - 10 - - 7.9 1018.4 0.0
16/07:00pm NW 4 5 - - - - 10 - - 9.0 1018.1 0.0
16/06:30pm NNW 5 5 - - - - 10 - - 9.4 1018.1 0.0
16/06:00pm NNW 4 4 - - - - 10 - - 10.8 1017.7 0.0
16/05:30pm WNW 5 6 - - - - 10 - - 11.7 1017.3 0.0
16/05:00pm NE 3 3 - - - - 10 - - 13.9 1017.1 0.0
16/04:30pm NE 4 5 - - - - 10 - - 17.8 1016.8 0.0
16/04:00pm NE 5 5 - - - - 10 - - 18.7 1016.9 0.0
16/03:30pm ENE 4 6 - - - - 10 - - 18.9 1016.8 0.0
16/03:00pm ESE 5 7 - - - - 10 - - 18.8 1016.8 0.0
16/02:30pm ESE 6 8 - - - - 10 - - 19.3 1016.8 0.0
16/02:00pm SE 7 8 - - - - 10 - - 19.4 1016.8 0.0
16/01:30pm ESE 5 7 - - - - 10 - - 19.3 1017.1 0.0
16/01:00pm SE 7 8 - - - - 10 - - 19.3 1017.2 0.0
16/12:30pm SE 6 8 - - - - 10 - - 19.1 1017.5 0.0
16/12:00pm SE 5 6 - - - - 10 - - 18.7 1017.8 0.0
16/11:30am SSE 6 7 - - - - 10 - - 17.9 1018.1 0.0
16/11:00am SSE 7 8 - - - - 10 - - 17.9 1018.4 0.0
16/10:30am SSW 6 8 - - - - 10 - - 18.1 1018.8 0.0
16/10:00am W 4 7 - - - - 10 - - 17.5 1019.1 0.0
16/09:30am NW 6 7 - - - - 10 - - 16.7 1019.3 0.0
16/09:00am NNW 7 9 - - - - 10 - - 15.4 1019.3 0.0
16/08:30am NW 7 9 - - - - 10 - - 12.7 1019.2 0.0
16/08:00am NW 8 9 - - - - 10 - - 10.8 1019.0 0.0
16/07:57am NW 7 9 - - - - 10 - - 10.5 1019.0 0.0
16/07:30am NW 5 7 - - - - 10 - - 5.5 1018.7 0.0
16/07:00am NW 4 5 - - - - 10 - - 3.4 1018.4 0.0
16/06:30am NW 5 7 - - - - 10 - - 4.2 1018.1 0.0
16/06:00am NNW 6 7 - - - - 10 - - 3.1 1017.8 0.0
16/05:30am WNW 3 5 - - - - 10 - - 2.7 1017.9 0.0
16/05:00am WNW 5 6 - - - - 10 - - 2.4 1018.1 0.0
16/04:30am WNW 2 4 - - - - 10 - - 2.8 1018.1 0.0
16/04:00am NW 4 5 - - - - 10 - - 2.9 1018.1 0.0
16/03:30am NW 5 5 - - - - 10 - - 3.1 1018.5 0.0
16/03:00am W 4 5 - - - - 10 - - 3.3 1018.7 0.0
16/02:30am WNW 4 5 - - - - 10 - - 3.5 1018.7 0.0
16/02:00am NW 4 5 - - - - 10 - - 4.1 1018.7 0.0
16/01:30am NW 4 5 - - - - 10 - - 3.5 1019.0 0.0
16/01:00am NW 4 4 - - - - 10 - - 3.9 1019.3 0.0
16/12:30am NNW 5 5 - - - - 10 - - 4.1 1019.5 0.0
16/12:00am NNW 4 4 - - - - 10 - - 4.7 1019.4 0.0
 
Date/Time
EST
Wind Sea
Height
m
Swell Vis
km
Cloud Weather Temp
°C
Press
hPa
Rain since
9am
mm
Dir  Spd
kts
Gust
kts
Height
m
Period
s
Dir
15/11:30pm NNW 4 4 - - - - 10 - - 5.1 1019.4 0.0
15/11:00pm NW 4 5 - - - - 10 - - 5.3 1019.6 0.0
15/10:30pm NW 5 6 - - - - 10 - - 6.5 1019.7 0.0
15/10:00pm WNW 5 6 - - - - 10 - - 7.2 1019.8 0.0
15/09:30pm WNW 5 7 - - - - 10 - - 8.5 1019.6 0.0
15/09:00pm WNW 5 6 - - - - 10 - - 6.5 1019.6 0.0
15/08:30pm W 6 7 - - - - 10 - - 6.8 1019.5 0.0
15/08:00pm W 5 6 - - - - 10 - - 7.7 1019.3 0.0
15/07:30pm W 6 8 - - - - 10 - - 10.6 1019.2 0.0
15/07:00pm WNW 6 7 - - - - 10 - - 9.8 1018.9 0.0
15/06:30pm WNW 6 7 - - - - 10 - - 11.2 1018.5 0.0
15/06:00pm W 6 9 - - - - 10 - - 12.7 1018.1 0.0
15/05:30pm W 6 7 - - - - 10 - - 13.7 1017.6 0.0
15/05:00pm W 7 10 - - - - 10 - - 14.9 1017.2 0.0
15/04:30pm W 8 12 - - - - 10 - - 16.7 1016.7 0.0
15/04:00pm W 8 10 - - - - 10 - - 17.6 1016.5 0.0
15/03:30pm WSW 9 15 - - - - 10 - - 17.9 1016.2 0.0
15/03:00pm WSW 9 16 - - - - 10 - - 18.2 1015.7 0.0
15/02:30pm WSW 10 16 - - - - 10 Partly cloudy - 18.4 1015.6 0.0
15/02:00pm SW 13 20 - - - - 10 - - 18.5 1015.5 0.0
15/01:30pm WSW 13 18 - - - - 10 - - 18.8 1015.4 0.0

Other formats

Comma delimited format used in spreadsheet applications
http://www.bom.gov.au/fwo/IDN60701/IDN60701.95729.axf

JavaScript Object Notation format (JSON) in row-major order
http://www.bom.gov.au/fwo/IDN60701/IDN60701.95729.json

Data quality

Most of these data are generated automatically and are frequently updated. Quality checks on data are not normally performed. It is possible for incorrect values to appear. Refer to information at About Latest Weather Observations and please check the disclaimer before using these data.